createdAt,value
2017-05-12T00:00:47.469Z,0
2017-05-12T00:01:57.505Z,0
2017-05-12T00:03:07.891Z,0
2017-05-12T00:04:18.229Z,0
2017-05-12T00:05:28.567Z,0
2017-05-12T00:06:38.919Z,0
2017-05-12T00:07:49.318Z,0
2017-05-12T00:08:59.358Z,0
2017-05-12T00:10:09.714Z,0
2017-05-12T00:11:19.439Z,0
2017-05-12T00:12:29.477Z,0
2017-05-12T00:13:39.849Z,0
2017-05-12T00:14:50.204Z,0
2017-05-12T00:16:00.237Z,0
2017-05-12T00:17:10.592Z,0
2017-05-12T00:18:20.930Z,0
2017-05-12T00:19:30.970Z,0
2017-05-12T00:20:40.697Z,0
2017-05-12T00:21:50.730Z,0
2017-05-12T00:23:01.098Z,0
2017-05-12T00:24:11.124Z,0
2017-05-12T00:25:21.161Z,0
2017-05-12T00:26:31.192Z,0
2017-05-12T00:27:41.221Z,0
2017-05-12T00:28:51.579Z,0
2017-05-12T00:30:01.957Z,0
2017-05-12T00:31:11.993Z,0
2017-05-12T00:32:22.336Z,0
2017-05-12T00:33:32.690Z,0
2017-05-12T00:34:42.410Z,0
2017-05-12T00:35:52.756Z,0
2017-05-12T00:37:02.837Z,0
2017-05-12T00:38:12.860Z,0
2017-05-12T00:39:23.207Z,0
2017-05-12T00:40:33.235Z,0
2017-05-12T00:41:43.592Z,0
2017-05-12T00:42:53.681Z,0
2017-05-12T00:44:04.035Z,0
2017-05-12T00:45:14.390Z,0
2017-05-12T00:46:24.122Z,0
2017-05-12T00:47:34.154Z,0
2017-05-12T00:48:44.193Z,0
2017-05-12T00:49:53.907Z,0
2017-05-12T00:51:03.619Z,0
2017-05-12T00:52:13.966Z,0
2017-05-12T00:53:24.308Z,0
2017-05-12T00:54:34.655Z,0
2017-05-12T00:55:44.377Z,0
2017-05-12T00:56:54.424Z,0
2017-05-12T00:58:04.473Z,0
2017-05-12T00:59:14.877Z,0
2017-05-12T01:00:25.221Z,0
2017-05-12T01:01:35.563Z,0
2017-05-12T01:02:45.913Z,0
2017-05-12T01:03:56.264Z,0
2017-05-12T01:05:06.629Z,0
2017-05-12T01:06:16.979Z,0
2017-05-12T01:07:27.328Z,0
2017-05-12T01:08:37.678Z,0
2017-05-12T01:09:47.746Z,0
2017-05-12T01:10:57.463Z,0
2017-05-12T01:12:07.831Z,0
2017-05-12T01:13:18.198Z,0
2017-05-12T01:14:28.229Z,0
2017-05-12T01:15:38.646Z,0
2017-05-12T01:16:48.999Z,0
2017-05-12T01:17:59.060Z,0
2017-05-12T01:19:09.418Z,0
2017-05-12T01:20:19.823Z,0
2017-05-12T01:21:30.205Z,0
2017-05-12T01:22:40.558Z,0
2017-05-12T01:23:50.623Z,0
2017-05-12T01:25:00.664Z,0
2017-05-12T01:26:10.702Z,0
2017-05-12T01:27:21.058Z,0
2017-05-12T01:28:31.406Z,0
2017-05-12T01:29:41.461Z,0
2017-05-12T01:30:51.180Z,0
2017-05-12T01:32:01.208Z,0
2017-05-12T01:33:11.262Z,0
2017-05-12T01:34:21.622Z,0
2017-05-12T01:35:31.960Z,0
2017-05-12T01:36:42.006Z,0
2017-05-12T01:37:52.365Z,0
2017-05-12T01:39:02.736Z,0
2017-05-12T01:40:13.079Z,0
2017-05-12T01:41:23.422Z,0
2017-05-12T01:42:33.777Z,0
2017-05-12T01:43:44.152Z,0
2017-05-12T01:44:54.492Z,0
2017-05-12T01:46:04.847Z,0
2017-05-12T01:47:14.899Z,0
2017-05-12T01:48:24.933Z,0
2017-05-12T01:49:35.300Z,0
2017-05-12T01:50:45.663Z,0
2017-05-12T01:51:55.701Z,0
2017-05-12T01:53:05.441Z,0
2017-05-12T01:54:15.791Z,0
2017-05-12T01:55:26.175Z,0
2017-05-12T01:56:36.517Z,0
2017-05-12T01:57:46.574Z,0
2017-05-12T01:58:56.973Z,0
2017-05-12T02:00:07.328Z,0
2017-05-12T02:01:17.694Z,0
2017-05-12T02:02:28.036Z,0
2017-05-12T02:03:38.388Z,0
2017-05-12T02:04:48.752Z,0
2017-05-12T02:05:58.797Z,0
2017-05-12T02:07:09.144Z,0
2017-05-12T02:08:19.496Z,0
2017-05-12T02:09:29.523Z,0
2017-05-12T02:10:39.868Z,0
2017-05-12T02:11:49.923Z,0
2017-05-12T02:12:59.988Z,0
2017-05-12T02:14:10.339Z,0
2017-05-12T02:15:20.682Z,0
2017-05-12T02:16:31.085Z,0
2017-05-12T02:17:41.421Z,0
2017-05-12T02:18:51.786Z,0
2017-05-12T02:20:02.145Z,0
2017-05-12T02:21:12.503Z,0
2017-05-12T02:22:22.863Z,0
2017-05-12T02:23:33.212Z,0
2017-05-12T02:24:43.287Z,0
2017-05-12T02:25:53.636Z,0
2017-05-12T02:27:03.679Z,0
2017-05-12T02:28:14.080Z,0
2017-05-12T02:29:24.428Z,0
2017-05-12T02:30:34.790Z,0
2017-05-12T02:31:45.142Z,0
2017-05-12T02:32:55.517Z,0
2017-05-12T02:34:05.856Z,0
2017-05-12T02:35:16.222Z,0
2017-05-12T02:36:26.249Z,0
2017-05-12T02:37:36.589Z,0
2017-05-12T02:38:46.324Z,0
2017-05-12T02:39:56.684Z,0
2017-05-12T02:41:06.740Z,0
2017-05-12T02:42:17.083Z,0
2017-05-12T02:43:27.124Z,0
2017-05-12T02:44:37.486Z,0
2017-05-12T02:45:47.907Z,0
2017-05-12T02:46:58.255Z,0
2017-05-12T02:48:08.606Z,0
2017-05-12T02:49:18.972Z,0
2017-05-12T02:50:29.305Z,0
2017-05-12T02:51:39.035Z,0
2017-05-12T02:52:49.084Z,0
2017-05-12T02:53:59.441Z,0
2017-05-12T02:55:09.511Z,0
2017-05-12T02:56:19.548Z,0
2017-05-12T02:57:29.899Z,0
2017-05-12T02:58:40.242Z,0
2017-05-12T02:59:50.587Z,0
2017-05-12T03:01:00.941Z,0
2017-05-12T03:32:53.228Z,5
2017-05-12T03:34:02.958Z,5
2017-05-12T03:35:12.987Z,5
2017-05-12T03:36:23.048Z,5
2017-05-12T03:37:33.386Z,10
2017-05-12T03:38:43.734Z,10
2017-05-12T03:39:54.126Z,10
2017-05-12T03:41:04.474Z,10
2017-05-12T03:42:14.822Z,10
2017-05-12T03:43:24.865Z,10
2017-05-12T03:44:34.956Z,10
2017-05-12T03:45:44.990Z,10
2017-05-12T03:46:55.339Z,10
2017-05-12T03:48:05.371Z,15
2017-05-12T03:49:15.723Z,15
2017-05-12T03:50:26.100Z,15
2017-05-12T03:51:36.474Z,15
2017-05-12T03:52:46.825Z,15
2017-05-12T03:53:57.172Z,15
2017-05-12T03:55:07.516Z,15
2017-05-12T03:56:17.560Z,15
2017-05-12T03:57:27.915Z,20
2017-05-12T03:58:37.968Z,20
2017-05-12T03:59:48.354Z,20
2017-05-12T04:00:58.719Z,20
2017-05-12T04:02:08.811Z,25
2017-05-12T04:03:18.868Z,25
2017-05-12T04:04:29.221Z,25
2017-05-12T04:05:39.578Z,25
2017-05-12T04:06:49.613Z,30
2017-05-12T04:07:59.649Z,30
2017-05-12T04:09:10.024Z,35
2017-05-12T04:10:20.396Z,35
2017-05-12T04:11:30.742Z,35
2017-05-12T04:12:41.079Z,40
2017-05-12T04:13:51.484Z,40
2017-05-12T04:15:01.528Z,40
2017-05-12T04:16:11.553Z,40
2017-05-12T04:17:21.908Z,45
2017-05-12T04:18:32.261Z,45
2017-05-12T04:19:42.628Z,50
2017-05-12T04:20:52.656Z,50
2017-05-12T04:22:02.698Z,55
2017-05-12T04:23:13.067Z,60
2017-05-12T04:24:23.426Z,65
2017-05-12T04:25:33.790Z,65
2017-05-12T04:26:43.823Z,70
2017-05-12T04:27:53.936Z,70
2017-05-12T04:29:04.292Z,75
2017-05-12T04:30:14.339Z,75
2017-05-12T04:31:24.081Z,80
2017-05-12T04:32:34.429Z,85
2017-05-12T04:33:44.790Z,90
2017-05-12T04:34:55.145Z,90
2017-05-12T04:36:04.889Z,90
2017-05-12T04:37:15.241Z,95
2017-05-12T04:38:25.326Z,100
2017-05-12T04:39:35.690Z,105
2017-05-12T04:40:45.739Z,110
2017-05-12T04:41:56.082Z,115
2017-05-12T04:43:06.438Z,150
2017-05-12T04:44:16.798Z,185
2017-05-12T04:45:26.822Z,225
2017-05-12T04:46:37.213Z,275
2017-05-12T04:47:47.586Z,325
2017-05-12T04:48:57.959Z,375
2017-05-12T04:50:08.322Z,365
2017-05-12T04:51:18.688Z,365
2017-05-12T04:52:29.089Z,365
2017-05-12T04:53:39.142Z,350
2017-05-12T04:54:48.881Z,375
2017-05-12T04:55:59.241Z,350
2017-05-12T04:57:09.284Z,310
2017-05-12T04:58:19.635Z,320
2017-05-12T04:59:29.987Z,295
2017-05-12T05:00:40.345Z,305
2017-05-12T05:01:50.712Z,295
2017-05-12T05:03:01.068Z,260
2017-05-12T05:04:11.116Z,200
2017-05-12T05:05:21.476Z,230
2017-05-12T05:06:31.894Z,170
2017-05-12T05:07:42.256Z,155
2017-05-12T05:08:52.346Z,140
2017-05-12T05:10:02.717Z,130
2017-05-12T05:11:13.080Z,120
2017-05-12T05:12:23.114Z,120
2017-05-12T05:13:33.471Z,130
2017-05-12T05:14:43.875Z,125
2017-05-12T05:15:54.219Z,130
2017-05-12T05:17:04.590Z,140
2017-05-12T05:18:14.697Z,150
2017-05-12T05:19:24.754Z,175
2017-05-12T05:20:35.099Z,210
2017-05-12T05:21:45.456Z,255
2017-05-12T05:22:55.821Z,295
2017-05-12T05:24:06.265Z,235
2017-05-12T05:25:16.649Z,180
2017-05-12T05:26:27.024Z,170
2017-05-12T05:27:37.077Z,165
2017-05-12T05:28:47.130Z,165
2017-05-12T05:29:57.497Z,160
2017-05-12T05:31:07.547Z,160
2017-05-12T05:32:17.587Z,160
2017-05-12T05:33:27.004Z,160
2017-05-12T05:34:37.060Z,160
2017-05-12T05:35:47.415Z,160
2017-05-12T05:36:57.760Z,165
2017-05-12T05:38:08.116Z,170
2017-05-12T05:39:18.461Z,180
2017-05-12T05:40:28.505Z,190
2017-05-12T05:41:38.860Z,200
2017-05-12T05:42:49.205Z,210
2017-05-12T05:43:59.562Z,405
2017-05-12T05:45:09.592Z,455
2017-05-12T05:46:19.947Z,430
2017-05-12T05:47:30.313Z,395
2017-05-12T05:48:40.359Z,320
2017-05-12T05:49:50.748Z,400
2017-05-12T05:51:01.110Z,270
2017-05-12T05:52:11.136Z,250
2017-05-12T05:53:21.535Z,325
2017-05-12T05:54:31.596Z,400
2017-05-12T05:55:41.950Z,310
2017-05-12T05:56:52.006Z,310
2017-05-12T05:58:02.367Z,240
2017-05-12T05:59:12.769Z,230
2017-05-12T06:00:23.135Z,230
2017-05-12T06:01:33.482Z,220
2017-05-12T06:02:43.834Z,205
2017-05-12T06:03:53.903Z,200
2017-05-12T06:05:04.253Z,185
2017-05-12T06:06:14.299Z,175
2017-05-12T06:07:24.672Z,175
2017-05-12T06:08:35.087Z,170
2017-05-12T06:09:45.445Z,175
2017-05-12T06:10:55.808Z,175
2017-05-12T06:12:05.851Z,180
2017-05-12T06:13:16.203Z,185
2017-05-12T06:14:26.555Z,190
2017-05-12T06:15:36.933Z,200
2017-05-12T06:16:47.297Z,200
2017-05-12T06:17:57.392Z,200
2017-05-12T06:19:07.743Z,195
2017-05-12T06:20:18.096Z,195
2017-05-12T06:21:28.152Z,200
2017-05-12T06:22:38.197Z,195
2017-05-12T06:23:48.560Z,200
2017-05-12T06:24:58.594Z,205
2017-05-12T06:26:08.664Z,200
2017-05-12T06:27:19.020Z,200
2017-05-12T06:28:29.120Z,195
2017-05-12T06:29:39.481Z,190
2017-05-12T06:30:49.848Z,190
2017-05-12T06:32:00.239Z,185
2017-05-12T06:33:10.594Z,185
2017-05-12T06:34:21.044Z,185
2017-05-12T06:35:31.144Z,190
2017-05-12T06:36:41.209Z,195
2017-05-12T06:37:51.291Z,195
2017-05-12T06:39:01.657Z,195
2017-05-12T06:40:12.077Z,195
2017-05-12T06:41:22.446Z,200
2017-05-12T06:42:32.488Z,200
2017-05-12T06:43:42.856Z,205
2017-05-12T06:44:53.219Z,210
2017-05-12T06:46:03.282Z,215
2017-05-12T06:47:13.644Z,220
2017-05-12T06:48:24.014Z,225
2017-05-12T06:49:34.407Z,225
2017-05-12T06:50:44.765Z,225
2017-05-12T06:51:55.139Z,225
2017-05-12T06:53:05.289Z,235
2017-05-12T06:54:15.665Z,235
2017-05-12T06:55:26.031Z,235
2017-05-12T06:56:36.080Z,235
2017-05-12T06:57:46.468Z,230
2017-05-12T06:58:56.842Z,225
2017-05-12T07:00:07.203Z,225
2017-05-12T07:01:16.948Z,220
2017-05-12T07:02:27.311Z,215
2017-05-12T07:03:37.726Z,215
2017-05-12T07:04:48.106Z,205
2017-05-12T07:05:58.493Z,200
2017-05-12T07:07:08.846Z,200
2017-05-12T07:08:19.223Z,200
2017-05-12T07:09:29.601Z,205
2017-05-12T07:10:39.968Z,215
2017-05-12T07:11:50.336Z,215
2017-05-12T07:13:00.724Z,225
2017-05-12T07:14:10.776Z,245
2017-05-12T07:15:21.132Z,275
2017-05-12T07:16:31.517Z,280
2017-05-12T07:17:41.902Z,305
2017-05-12T07:18:52.291Z,315
2017-05-12T07:20:02.372Z,320
2017-05-12T07:21:12.433Z,295
2017-05-12T07:22:22.473Z,305
2017-05-12T07:23:32.541Z,295
2017-05-12T07:24:42.925Z,290
2017-05-12T07:25:53.332Z,290
2017-05-12T07:27:03.385Z,285
2017-05-12T07:28:13.756Z,285
2017-05-12T07:29:23.804Z,280
2017-05-12T07:30:33.554Z,275
2017-05-12T07:31:43.971Z,265
2017-05-12T07:32:53.716Z,265
2017-05-12T07:34:03.753Z,265
2017-05-12T07:35:14.105Z,260
2017-05-12T07:36:24.493Z,260
2017-05-12T07:37:34.886Z,260
2017-05-12T07:38:45.310Z,255
2017-05-12T07:39:54.759Z,250
2017-05-12T07:41:05.139Z,250
2017-05-12T07:42:15.513Z,250
2017-05-12T07:43:25.901Z,255
2017-05-12T07:44:36.390Z,255
2017-05-12T07:45:46.764Z,260
2017-05-12T07:46:56.832Z,270
2017-05-12T07:48:07.202Z,270
2017-05-12T07:49:17.256Z,275
2017-05-12T07:50:27.677Z,280
2017-05-12T07:51:38.048Z,290
2017-05-12T07:52:48.415Z,315
2017-05-12T07:53:58.791Z,315
2017-05-12T07:55:09.171Z,300
2017-05-12T07:56:19.540Z,290
2017-05-12T07:57:29.587Z,290
2017-05-12T07:58:39.356Z,295
2017-05-12T07:59:49.717Z,290
2017-05-12T08:01:00.114Z,275
2017-05-12T08:02:10.486Z,275
2017-05-12T08:03:20.886Z,275
2017-05-12T08:04:31.260Z,280
2017-05-12T08:05:41.638Z,280
2017-05-12T08:06:52.102Z,295
2017-05-12T08:08:02.523Z,305
2017-05-12T08:09:12.298Z,295
2017-05-12T08:10:22.672Z,295
2017-05-12T08:11:33.047Z,285
2017-05-12T08:12:43.629Z,285
2017-05-12T08:13:54.006Z,280
2017-05-12T08:15:04.404Z,295
2017-05-12T08:58:10.026Z,270
2017-05-12T08:59:20.401Z,270
2017-05-12T09:00:30.460Z,270
2017-05-12T09:01:40.575Z,265
2017-05-12T09:02:50.938Z,260
2017-05-12T09:04:01.342Z,265
2017-05-12T09:05:11.706Z,270
2017-05-12T09:06:22.078Z,275
2017-05-12T09:07:32.452Z,280
2017-05-12T09:08:42.801Z,285
2017-05-12T09:09:53.183Z,245
2017-05-12T09:11:03.548Z,260
2017-05-12T09:12:33.115Z,295
2017-05-12T09:13:43.472Z,315
2017-05-12T09:14:53.835Z,315
2017-05-12T09:16:04.196Z,235
2017-05-12T09:17:14.894Z,260
2017-05-12T09:18:25.103Z,230
2017-05-12T09:19:35.489Z,265
2017-05-12T09:20:46.008Z,250
2017-05-12T09:21:56.385Z,250
2017-05-12T09:23:06.842Z,255
2017-05-12T09:24:16.569Z,280
2017-05-12T09:25:26.609Z,280
2017-05-12T09:26:36.660Z,275
2017-05-12T09:27:47.047Z,350
2017-05-12T09:28:57.419Z,375
2017-05-12T09:30:07.791Z,355
2017-05-12T09:31:18.206Z,380
2017-05-12T09:32:28.281Z,375
2017-05-12T09:33:38.652Z,385
2017-05-12T09:34:49.028Z,360
2017-05-12T09:35:59.400Z,300
2017-05-12T09:37:09.771Z,300
2017-05-12T09:38:20.144Z,370
2017-05-12T09:39:29.885Z,365
2017-05-12T09:40:40.263Z,370
2017-05-12T09:41:50.614Z,365
2017-05-12T09:43:00.671Z,330
2017-05-12T09:44:10.741Z,335
2017-05-12T09:45:20.794Z,370
2017-05-12T09:46:30.539Z,360
2017-05-12T09:47:40.611Z,350
2017-05-12T09:48:50.968Z,350
2017-05-12T09:50:01.333Z,320
2017-05-12T09:51:11.704Z,295
2017-05-12T09:52:21.751Z,310
2017-05-12T09:53:31.807Z,335
2017-05-12T09:54:42.177Z,320
2017-05-12T09:55:52.223Z,310
2017-05-12T09:57:02.291Z,330
2017-05-12T09:58:12.667Z,335
2017-05-12T09:59:23.065Z,330
2017-05-12T10:00:33.446Z,330
2017-05-12T10:01:43.509Z,330
2017-05-12T10:02:53.571Z,335
2017-05-12T10:04:03.645Z,345
2017-05-12T10:05:14.005Z,345
2017-05-12T10:06:24.061Z,345
2017-05-12T10:07:34.437Z,345
2017-05-12T10:08:44.513Z,345
2017-05-12T10:09:54.909Z,340
2017-05-12T10:11:04.658Z,335
2017-05-12T10:12:15.032Z,320
2017-05-12T10:13:25.386Z,320
2017-05-12T10:14:35.744Z,320
2017-05-12T10:15:46.107Z,325
2017-05-12T10:16:56.451Z,325
2017-05-12T10:18:06.498Z,320
2017-05-12T10:19:16.877Z,315
2017-05-12T10:20:27.266Z,310
2017-05-12T10:21:37.346Z,320
2017-05-12T10:22:47.707Z,320
2017-05-12T10:23:58.063Z,320
2017-05-12T10:25:08.423Z,315
2017-05-12T10:26:18.770Z,315
2017-05-12T10:27:28.834Z,320
2017-05-12T10:28:38.878Z,325
2017-05-12T10:29:48.952Z,320
2017-05-12T10:30:58.990Z,320
2017-05-12T10:32:09.065Z,325
2017-05-12T10:33:19.129Z,320
2017-05-12T10:34:29.502Z,315
2017-05-12T10:35:39.856Z,315
2017-05-12T10:36:50.232Z,315
2017-05-12T10:38:00.609Z,320
2017-05-12T10:39:10.683Z,320
2017-05-12T10:40:21.058Z,330
2017-05-12T10:41:31.417Z,335
2017-05-12T10:42:41.815Z,340
2017-05-12T10:43:52.225Z,340
2017-05-12T10:45:02.288Z,335
2017-05-12T10:46:12.674Z,335
2017-05-12T10:47:22.733Z,345
2017-05-12T10:48:33.105Z,360
2017-05-12T10:49:43.496Z,370
2017-05-12T10:50:53.841Z,365
2017-05-12T10:52:04.200Z,365
2017-05-12T10:53:13.715Z,360
2017-05-12T10:54:24.092Z,340
2017-05-12T10:55:34.162Z,365
2017-05-12T10:56:44.618Z,360
2017-05-12T10:57:54.664Z,335
2017-05-12T10:59:05.106Z,275
2017-05-12T11:00:15.475Z,260
2017-05-12T11:01:25.858Z,260
2017-05-12T11:02:36.231Z,280
2017-05-12T11:03:46.612Z,290
2017-05-12T11:04:57.003Z,300
2017-05-12T11:06:07.374Z,250
2017-05-12T11:07:17.751Z,265
2017-05-12T11:08:27.801Z,210
2017-05-12T11:09:38.165Z,200
2017-05-12T11:10:48.508Z,190
2017-05-12T11:11:58.872Z,180
2017-05-12T11:13:08.926Z,180
2017-05-12T11:14:19.297Z,185
2017-05-12T11:15:29.055Z,175
2017-05-12T11:16:39.124Z,180
2017-05-12T11:17:49.183Z,180
2017-05-12T11:18:59.573Z,170
2017-05-12T11:20:09.638Z,170
2017-05-12T11:21:19.997Z,170
2017-05-12T11:22:30.047Z,185
2017-05-12T11:23:40.409Z,195
2017-05-12T11:24:50.765Z,200
2017-05-12T11:26:01.145Z,210
2017-05-12T11:27:11.513Z,355
2017-05-12T11:28:21.584Z,230
2017-05-12T11:29:31.960Z,250
2017-05-12T11:30:42.331Z,255
2017-05-12T11:31:52.405Z,295
2017-05-12T11:33:02.469Z,240
2017-05-12T11:34:12.826Z,230
2017-05-12T11:35:22.559Z,240
2017-05-12T11:36:32.925Z,225
2017-05-12T11:37:43.290Z,230
2017-05-12T11:38:53.709Z,235
2017-05-12T11:40:03.776Z,260
2017-05-12T11:41:13.832Z,260
2017-05-12T11:42:24.251Z,350
2017-05-12T11:43:34.621Z,270
2017-05-12T11:44:44.996Z,270
2017-05-12T11:45:55.047Z,275
2017-05-12T11:47:05.088Z,280
2017-05-12T11:48:15.445Z,285
2017-05-12T11:49:25.538Z,290
2017-05-12T11:50:35.889Z,295
2017-05-12T11:51:45.951Z,305
2017-05-12T11:52:56.307Z,310
2017-05-12T11:54:06.682Z,310
2017-05-12T11:55:17.263Z,315
2017-05-12T11:56:27.359Z,310
2017-05-12T11:57:37.734Z,315
2017-05-12T11:58:48.149Z,310
2017-05-12T11:59:58.196Z,310
2017-05-12T12:01:08.262Z,310
2017-05-12T12:02:18.618Z,305
2017-05-12T12:03:28.982Z,305
2017-05-12T12:04:39.030Z,305
2017-05-12T12:05:49.101Z,310
2017-05-12T12:06:59.698Z,310
2017-05-12T12:08:10.090Z,320
2017-05-12T12:09:20.452Z,325
2017-05-12T12:10:30.875Z,320
2017-05-12T12:11:41.336Z,320
2017-05-12T12:12:51.074Z,320
2017-05-12T12:14:01.439Z,315
2017-05-12T12:15:11.813Z,310
2017-05-12T12:16:22.178Z,310
2017-05-12T12:17:32.233Z,310
2017-05-12T12:18:42.302Z,305
2017-05-12T12:19:52.692Z,310
2017-05-12T12:21:03.049Z,310
2017-05-12T12:22:13.442Z,315
2017-05-12T12:23:23.818Z,315
2017-05-12T12:24:34.186Z,320
2017-05-12T12:25:44.535Z,320
2017-05-12T12:26:54.909Z,315
2017-05-12T12:28:04.960Z,300
2017-05-12T12:29:15.371Z,290
2017-05-12T12:30:25.749Z,285
2017-05-12T12:31:35.794Z,285
2017-05-12T12:32:45.917Z,300
2017-05-12T12:33:55.992Z,305
2017-05-12T12:35:06.368Z,310
2017-05-12T12:36:16.741Z,315
2017-05-12T12:37:27.132Z,320
2017-05-12T12:38:36.888Z,345
2017-05-12T12:39:47.269Z,380
2017-05-12T12:40:56.716Z,445
2017-05-12T12:42:06.774Z,465
2017-05-12T12:43:17.153Z,450
2017-05-12T12:44:27.531Z,385
2017-05-12T12:45:37.912Z,360
2017-05-12T12:46:48.295Z,305
2017-05-12T12:47:58.340Z,290
2017-05-12T12:49:08.707Z,270
2017-05-12T12:50:19.079Z,275
2017-05-12T12:51:29.447Z,285
2017-05-12T12:52:39.808Z,305
2017-05-12T12:53:50.186Z,280
2017-05-12T12:55:00.566Z,250
2017-05-12T12:56:10.925Z,240
2017-05-12T12:57:20.982Z,280
2017-05-12T12:58:31.346Z,225
2017-05-12T12:59:41.705Z,225
2017-05-12T13:00:52.106Z,215
2017-05-12T13:02:02.503Z,245
2017-05-12T13:03:12.559Z,245
2017-05-12T13:04:22.618Z,225
2017-05-12T13:05:32.989Z,225
2017-05-12T13:06:43.034Z,245
2017-05-12T13:07:52.783Z,215
2017-05-12T13:09:03.161Z,220
2017-05-12T13:10:13.532Z,310
2017-05-12T13:11:23.905Z,320
2017-05-12T13:12:34.344Z,210
2017-05-12T13:13:44.385Z,240
2017-05-12T13:14:54.768Z,315
2017-05-12T13:16:05.155Z,220
2017-05-12T13:17:15.538Z,210
2017-05-12T13:18:25.593Z,250
2017-05-12T13:19:35.993Z,280
2017-05-12T13:20:46.383Z,275
2017-05-12T13:21:56.786Z,265
2017-05-12T13:23:06.843Z,260
2017-05-12T13:24:17.224Z,250
2017-05-12T13:25:27.581Z,245
2017-05-12T13:26:37.954Z,245
2017-05-12T13:27:48.025Z,240
2017-05-12T13:28:58.074Z,235
2017-05-12T13:30:08.449Z,235
2017-05-12T13:31:18.900Z,235
2017-05-12T13:32:28.652Z,235
2017-05-12T13:33:38.700Z,230
2017-05-12T13:34:48.744Z,230
2017-05-12T13:35:58.812Z,230
2017-05-12T13:37:08.861Z,235
2017-05-12T13:38:19.237Z,235
2017-05-12T13:39:29.594Z,235
2017-05-12T13:40:39.969Z,235
2017-05-12T13:41:50.022Z,235
2017-05-12T13:42:59.788Z,240
2017-05-12T13:44:10.162Z,210
2017-05-12T13:45:20.550Z,135
2017-05-12T13:46:30.956Z,135
2017-05-12T13:47:41.337Z,130
2017-05-12T13:48:51.684Z,140
2017-05-12T13:50:02.098Z,180
2017-05-12T13:51:12.162Z,140
2017-05-12T13:52:22.527Z,135
2017-05-12T13:53:32.897Z,135
2017-05-12T13:54:43.258Z,140
2017-05-12T13:55:53.635Z,145
2017-05-12T13:57:04.019Z,205
2017-05-12T13:58:14.400Z,255
2017-05-12T13:59:24.778Z,190
2017-05-12T14:00:35.195Z,145
2017-05-12T14:01:45.578Z,145
2017-05-12T14:02:55.964Z,245
2017-05-12T14:04:06.346Z,245
2017-05-12T14:05:16.752Z,205
2017-05-12T14:06:27.130Z,145
2017-05-12T14:07:37.506Z,155
2017-05-12T14:08:47.883Z,155
2017-05-12T14:09:58.262Z,150
2017-05-12T14:11:08.338Z,145
2017-05-12T14:12:18.716Z,145
2017-05-12T14:13:29.093Z,140
2017-05-12T14:14:39.501Z,140
2017-05-12T14:15:49.249Z,140
2017-05-12T14:16:59.316Z,140
2017-05-12T14:18:09.688Z,145
2017-05-12T14:19:20.057Z,145
2017-05-12T14:20:29.796Z,150
2017-05-12T14:21:39.858Z,160
2017-05-12T14:22:50.253Z,160
2017-05-12T14:24:00.620Z,160
2017-05-12T14:25:10.978Z,155
2017-05-12T14:26:21.341Z,150
2017-05-12T14:27:31.703Z,145
2017-05-12T14:28:42.302Z,145
2017-05-12T14:29:52.666Z,150
2017-05-12T14:31:03.041Z,155
2017-05-12T14:32:13.410Z,160
2017-05-12T14:33:23.780Z,165
2017-05-12T14:34:33.834Z,165
2017-05-12T14:35:44.229Z,165
2017-05-12T14:36:54.594Z,165
2017-05-12T14:38:04.687Z,165
2017-05-12T14:39:14.115Z,170
2017-05-12T14:40:24.184Z,220
2017-05-12T14:41:34.246Z,245
2017-05-12T14:42:44.636Z,215
2017-05-12T14:43:54.693Z,250
2017-05-12T14:45:05.084Z,165
2017-05-12T14:46:15.458Z,175
2017-05-12T14:47:25.835Z,180
2017-05-12T14:48:35.924Z,185
2017-05-12T14:49:46.513Z,185
2017-05-12T14:50:56.576Z,185
2017-05-12T14:52:06.956Z,175
2017-05-12T14:53:17.322Z,165
2017-05-12T14:54:27.695Z,155
2017-05-12T14:55:38.087Z,145
2017-05-12T14:56:47.842Z,135
2017-05-12T14:57:58.216Z,130
2017-05-12T14:59:08.589Z,130
2017-05-12T15:00:18.667Z,120
2017-05-12T15:01:28.719Z,115
2017-05-12T15:02:38.792Z,110
2017-05-12T15:03:48.542Z,110
2017-05-12T15:04:58.942Z,110
2017-05-12T15:06:09.306Z,110
2017-05-12T15:07:19.662Z,110
2017-05-12T15:08:29.729Z,115
2017-05-12T15:09:40.139Z,115
2017-05-12T15:10:50.198Z,120
2017-05-12T15:12:00.256Z,125
2017-05-12T15:13:10.310Z,130
2017-05-12T15:14:20.692Z,135
2017-05-12T15:15:31.057Z,135
2017-05-12T15:16:41.420Z,160
2017-05-12T15:17:51.806Z,190
2017-05-12T15:19:02.171Z,190
2017-05-12T15:20:12.231Z,225
2017-05-12T15:21:22.286Z,235
2017-05-12T15:22:32.029Z,230
2017-05-12T15:23:42.098Z,220
2017-05-12T15:24:51.858Z,220
2017-05-12T15:26:01.917Z,215
2017-05-12T15:27:11.987Z,210
2017-05-12T15:28:22.342Z,200
2017-05-12T15:29:32.380Z,195
2017-05-12T15:30:42.110Z,180
2017-05-12T15:31:52.491Z,155
2017-05-12T15:33:02.878Z,140
2017-05-12T15:34:13.270Z,135
2017-05-12T15:35:23.655Z,125
2017-05-12T15:36:34.035Z,125
2017-05-12T15:37:44.410Z,120
2017-05-12T15:38:54.490Z,115
2017-05-12T15:40:04.588Z,120
2017-05-12T15:41:14.970Z,135
2017-05-12T15:42:25.361Z,155
2017-05-12T15:43:35.753Z,180
2017-05-12T15:44:46.027Z,180
2017-05-12T15:45:56.068Z,190
2017-05-12T15:47:06.444Z,175
2017-05-12T15:48:16.814Z,185
2017-05-12T15:49:26.879Z,185
2017-05-12T15:50:37.255Z,145
2017-05-12T15:51:47.334Z,135
2017-05-12T15:52:57.703Z,120
2017-05-12T15:54:08.107Z,110
2017-05-12T15:55:18.449Z,110
2017-05-12T15:56:28.800Z,105
2017-05-12T15:57:39.178Z,100
2017-05-12T15:58:49.439Z,95
2017-05-12T15:59:59.805Z,85
2017-05-12T16:01:09.862Z,75
2017-05-12T16:02:19.643Z,70
2017-05-12T16:03:29.698Z,65
2017-05-12T16:04:40.075Z,60
2017-05-12T16:05:50.449Z,60
2017-05-12T16:07:00.505Z,55
2017-05-12T16:08:10.860Z,55
2017-05-12T16:09:21.427Z,55
2017-05-12T16:10:31.499Z,50
2017-05-12T16:11:41.894Z,50
2017-05-12T16:12:51.957Z,50
2017-05-12T16:14:02.343Z,50
2017-05-12T16:15:12.731Z,45
2017-05-12T16:16:22.803Z,45
2017-05-12T16:17:32.862Z,45
2017-05-12T16:18:42.936Z,45
2017-05-12T16:19:52.963Z,45
2017-05-12T16:21:03.331Z,45
2017-05-12T16:22:13.687Z,45
2017-05-12T16:23:24.070Z,45
2017-05-12T16:24:33.804Z,45
2017-05-12T16:25:44.232Z,45
2017-05-12T16:26:54.577Z,50
2017-05-12T16:28:04.661Z,50
2017-05-12T16:29:15.045Z,55
2017-05-12T16:30:25.423Z,55
2017-05-12T16:31:35.794Z,60
2017-05-12T16:32:45.876Z,65
2017-05-12T16:33:56.258Z,65
2017-05-12T16:35:06.621Z,70
2017-05-12T16:36:16.355Z,70
2017-05-12T16:37:26.420Z,70
2017-05-12T16:38:36.481Z,70
2017-05-12T16:39:46.862Z,70
2017-05-12T16:40:57.270Z,70
2017-05-12T16:42:07.652Z,70
2017-05-12T16:43:18.017Z,70
2017-05-12T16:44:28.078Z,70
2017-05-12T16:45:38.443Z,75
2017-05-12T16:46:48.673Z,75
2017-05-12T16:47:58.695Z,75
2017-05-12T16:49:08.725Z,70
2017-05-12T16:50:19.132Z,70
2017-05-12T16:51:29.499Z,70
2017-05-12T16:52:39.562Z,70
2017-05-12T16:53:49.939Z,70
2017-05-12T16:55:00.317Z,65
2017-05-12T16:56:10.886Z,65
2017-05-12T16:57:21.256Z,65
2017-05-12T16:58:31.628Z,60
2017-05-12T16:59:41.721Z,60
2017-05-12T17:00:51.789Z,60
2017-05-12T17:02:02.179Z,60
2017-05-12T17:03:12.564Z,55
2017-05-12T17:04:22.623Z,55
2017-05-12T17:05:32.659Z,55
2017-05-12T17:06:43.070Z,55
2017-05-12T17:07:53.436Z,55
2017-05-12T17:09:03.787Z,60
2017-05-12T17:10:14.146Z,60
2017-05-12T17:11:24.508Z,55
2017-05-12T17:12:34.921Z,55
2017-05-12T17:13:45.328Z,55
2017-05-12T17:14:55.433Z,55
2017-05-12T17:16:05.815Z,60
2017-05-12T17:17:16.177Z,60
2017-05-12T17:18:26.564Z,60
2017-05-12T17:19:36.648Z,65
2017-05-12T17:20:47.020Z,65
2017-05-12T17:21:57.129Z,65
2017-05-12T17:23:07.206Z,65
2017-05-12T17:24:17.263Z,65
2017-05-12T17:25:27.622Z,60
2017-05-12T17:26:37.676Z,60
2017-05-12T17:27:48.046Z,55
2017-05-12T17:28:58.407Z,55
2017-05-12T17:30:08.795Z,55
2017-05-12T17:31:18.871Z,45
2017-05-12T17:32:29.244Z,40
2017-05-12T17:33:39.608Z,40
2017-05-12T17:34:49.971Z,40
2017-05-12T17:36:00.020Z,35
2017-05-12T17:37:10.405Z,35
2017-05-12T17:38:20.773Z,35